createdAt,value
2022-12-23T00:02:08.097Z,99243.28
2022-12-23T00:05:10.285Z,99231.84
2022-12-23T00:08:12.204Z,99247.75
2022-12-23T00:11:17.704Z,99234.34
2022-12-23T00:14:38.343Z,99232.53
2022-12-23T00:17:45.462Z,99220.38
2022-12-23T00:20:47.238Z,99223.75
2022-12-23T00:23:50.685Z,99214.09
2022-12-23T00:26:52.532Z,99220.38
2022-12-23T00:29:54.358Z,99211.44
2022-12-23T00:32:56.156Z,99215.19
2022-12-23T00:35:58.619Z,99217.59
2022-12-23T00:39:18.980Z,99218.44
2022-12-23T00:42:39.269Z,99218.69
2022-12-23T00:45:41.184Z,99218.69
2022-12-23T00:49:01.597Z,99216.03
2022-12-23T00:52:05.551Z,99205.69
2022-12-23T00:55:07.783Z,99204.56
2022-12-23T00:58:09.637Z,99202.06
2022-12-23T01:01:30.027Z,99201.78
2022-12-23T01:04:50.637Z,99197.72
2022-12-23T01:07:53.119Z,99204.97
2022-12-23T01:10:55.489Z,99205.56
2022-12-23T01:13:58.727Z,99189.63
2022-12-23T01:17:00.812Z,99201.09
2022-12-23T01:20:02.894Z,99203.88
2022-12-23T01:23:04.892Z,99190.72
2022-12-23T01:26:08.140Z,99196.03
2022-12-23T01:29:10.018Z,99180.25
2022-12-23T01:32:11.900Z,99179.81
2022-12-23T01:35:13.976Z,99183.03
2022-12-23T01:38:15.942Z,99180.66
2022-12-23T01:41:42.715Z,99188.16
2022-12-23T01:44:58.212Z,99176.31
2022-12-23T01:48:03.327Z,99177.28
2022-12-23T01:51:10.921Z,99178.66
2022-12-23T01:54:13.021Z,99171.13
2022-12-23T01:57:15.707Z,99171.00
2022-12-23T02:00:36.669Z,99169.19
2022-12-23T02:03:44.675Z,99178.97
2022-12-23T02:07:08.000Z,99174.75
2022-12-23T02:10:10.349Z,99172.38
2022-12-23T02:13:22.404Z,99171.41
2022-12-23T02:16:24.421Z,99169.00
2022-12-23T02:19:57.109Z,99161.63
2022-12-23T02:23:18.515Z,99166.94
2022-12-23T02:26:35.536Z,99172.94
2022-12-23T02:30:01.807Z,99162.59
2022-12-23T02:33:29.920Z,99157.28
2022-12-23T02:36:47.062Z,99153.66
2022-12-23T02:39:58.828Z,99151.28
2022-12-23T02:43:16.036Z,99148.22
2022-12-23T02:46:43.688Z,99148.50
2022-12-23T02:49:51.727Z,99145.13
2022-12-23T02:52:57.333Z,99145.00
2022-12-23T02:56:02.158Z,99145.97
2022-12-23T02:59:13.108Z,99150.03
2022-12-23T03:02:15.485Z,99137.88
2022-12-23T03:05:28.077Z,99143.44
2022-12-23T03:08:43.505Z,99140.53
2022-12-23T03:11:57.491Z,99139.56
2022-12-23T03:15:24.596Z,99132.44
2022-12-23T03:18:29.157Z,99130.88
2022-12-23T03:21:55.596Z,99135.22
2022-12-23T03:25:06.292Z,99130.03
2022-12-23T03:28:16.239Z,99126.69
2022-12-23T03:31:24.725Z,99120.25
2022-12-23T03:34:31.308Z,99123.91
2022-12-23T03:37:37.432Z,99125.31
2022-12-23T03:40:43.664Z,99121.94
2022-12-23T03:43:55.289Z,99121.69
2022-12-23T03:47:10.134Z,99133.97
2022-12-23T03:50:15.226Z,99141.09
2022-12-23T03:53:24.297Z,99129.50
2022-12-23T03:56:33.076Z,99133.13
2022-12-23T03:59:39.086Z,99137.47
2022-12-23T04:03:04.353Z,99143.47
2022-12-23T04:06:12.418Z,99141.81
2022-12-23T04:09:21.740Z,99143.88
2022-12-23T04:12:27.336Z,99136.50
2022-12-23T04:15:29.875Z,99131.19
2022-12-23T04:18:31.756Z,99140.00
2022-12-23T04:21:33.504Z,99145.75
2022-12-23T04:24:35.323Z,99142.38
2022-12-23T04:27:37.347Z,99148.66
2022-12-23T04:30:39.140Z,99152.03
2022-12-23T04:33:41.076Z,99159.16
2022-12-23T04:36:42.922Z,99150.34
2022-12-23T04:39:44.756Z,99155.50
2022-12-23T04:42:46.644Z,99156.22
2022-12-23T04:45:52.008Z,99152.59
2022-12-23T04:48:53.980Z,99154.69
2022-12-23T04:51:55.756Z,99146.13
2022-12-23T04:54:57.571Z,99136.09
2022-12-23T04:57:59.396Z,99149.38
2022-12-23T05:01:06.566Z,99140.28
2022-12-23T05:04:10.152Z,99151.88
2022-12-23T05:07:12.099Z,99149.66
2022-12-23T05:10:14.920Z,99149.66
2022-12-23T05:13:16.725Z,99154.16
2022-12-23T05:16:18.747Z,99151.34
2022-12-23T05:19:20.572Z,99147.72
2022-12-23T05:22:22.419Z,99151.34
2022-12-23T05:25:24.321Z,99154.00
2022-12-23T05:28:26.149Z,99156.41
2022-12-23T05:31:28.182Z,99171.47
2022-12-23T05:34:30.155Z,99173.75
2022-12-23T05:37:32.121Z,99165.34
2022-12-23T05:40:33.929Z,99180.88
2022-12-23T05:43:36.104Z,99165.34
2022-12-23T05:46:38.036Z,99171.09
2022-12-23T05:49:40.044Z,99176.22
2022-12-23T05:52:42.255Z,99166.47
2022-12-23T05:55:44.143Z,99170.09
2022-12-23T05:58:45.990Z,99169.00
2022-12-23T06:01:47.918Z,99162.28
2022-12-23T06:04:49.861Z,99164.53
2022-12-23T06:07:51.655Z,99165.22
2022-12-23T06:10:54.036Z,99158.38
2022-12-23T06:13:55.942Z,99165.22
2022-12-23T06:16:58.031Z,99167.63
2022-12-23T06:20:00.057Z,99168.31
2022-12-23T06:23:03.008Z,99176.88
2022-12-23T06:26:04.835Z,99175.88
2022-12-23T06:29:06.782Z,99168.75
2022-12-23T06:32:08.951Z,99161.63
2022-12-23T06:35:10.999Z,99175.75
2022-12-23T06:38:12.909Z,99168.75
2022-12-23T06:41:15.014Z,99170.31
2022-12-23T06:44:17.219Z,99164.72
2022-12-23T06:47:19.103Z,99167.25
2022-12-23T06:50:20.924Z,99174.25
2022-12-23T06:53:22.812Z,99166.28
2022-12-23T06:56:24.708Z,99171.59
2022-12-23T06:59:27.023Z,99167.13
2022-12-23T07:02:28.969Z,99169.06
2022-12-23T07:05:37.079Z,99172.16
2022-12-23T07:08:39.568Z,99170.88
2022-12-23T07:11:41.437Z,99171.59
2022-12-23T07:14:43.338Z,99173.56
2022-12-23T07:17:45.179Z,99177.34
2022-12-23T07:20:47.055Z,99170.50
2022-12-23T07:23:48.963Z,99175.81
2022-12-23T07:26:51.525Z,99179.88
2022-12-23T07:29:53.311Z,99181.56
2022-12-23T07:32:55.137Z,99174.56
2022-12-23T07:36:00.325Z,99176.81
2022-12-23T07:39:02.170Z,99176.09
2022-12-23T07:42:33.798Z,99175.69
2022-12-23T07:45:27.367Z,99170.66
2022-12-23T07:48:29.377Z,99161.31
2022-12-23T07:51:32.121Z,99162.72
2022-12-23T07:54:36.802Z,99168.16
2022-12-23T07:57:40.005Z,99163.38
2022-12-23T08:00:41.784Z,99162.97
2022-12-23T08:03:43.748Z,99161.00
2022-12-23T08:06:45.664Z,99155.56
2022-12-23T08:09:47.515Z,99154.44
2022-12-23T08:12:49.483Z,99153.19
2022-12-23T08:15:59.010Z,99155.00
2022-12-23T08:19:00.922Z,99152.47
2022-12-23T08:22:03.038Z,99151.22
2022-12-23T08:25:05.262Z,99142.28
2022-12-23T08:28:07.114Z,99143.81
2022-12-23T08:31:22.050Z,99143.69
2022-12-23T08:34:24.033Z,99144.78
2022-12-23T08:37:25.958Z,99144.38
2022-12-23T08:40:27.783Z,99138.06
2022-12-23T08:43:35.502Z,99136.13
2022-12-23T08:46:38.526Z,99129.69
2022-12-23T08:49:40.487Z,99135.56
2022-12-23T08:52:42.268Z,99135.56
2022-12-23T08:55:47.248Z,99131.50
2022-12-23T08:58:51.109Z,99125.75
2022-12-23T09:01:54.182Z,99126.31
2022-12-23T09:04:57.155Z,99121.56
2022-12-23T09:07:59.301Z,99119.75
2022-12-23T09:11:01.465Z,99112.47
2022-12-23T09:14:04.577Z,99116.22
2022-12-23T09:17:06.469Z,99107.28
2022-12-23T09:20:08.891Z,99104.19
2022-12-23T09:23:10.847Z,99106.69
2022-12-23T09:26:19.722Z,99090.75
2022-12-23T09:29:21.684Z,99097.75
2022-12-23T09:32:23.574Z,99095.78
2022-12-23T09:35:25.565Z,99092.00
2022-12-23T09:38:27.459Z,99092.84
2022-12-23T09:41:48.953Z,99092.28
2022-12-23T09:44:53.543Z,99089.06
2022-12-23T09:47:56.701Z,99080.66
2022-12-23T09:51:00.817Z,99079.53
2022-12-23T09:54:30.681Z,99082.06
2022-12-23T09:57:32.496Z,99068.63
2022-12-23T10:00:42.876Z,99069.44
2022-12-23T10:04:02.949Z,99070.28
2022-12-23T10:07:04.853Z,99065.81
2022-12-23T10:10:17.487Z,99067.47
2022-12-23T10:13:27.932Z,99068.88
2022-12-23T10:16:38.363Z,99070.69
2022-12-23T10:19:47.390Z,99054.28
2022-12-23T10:22:50.057Z,99054.59
2022-12-23T10:25:52.687Z,99054.00
2022-12-23T10:29:01.351Z,99051.75
2022-12-23T10:32:27.772Z,99052.44
2022-12-23T10:36:00.592Z,99047.41
2022-12-23T10:39:17.239Z,99054.25
2022-12-23T10:42:36.912Z,99053.66
2022-12-23T10:45:41.522Z,99060.81
2022-12-23T10:48:46.090Z,99050.16
2022-12-23T10:51:59.249Z,99058.69
2022-12-23T10:55:00.980Z,99059.69
2022-12-23T10:58:18.254Z,99059.41
2022-12-23T11:01:26.568Z,99050.72
2022-12-23T11:04:35.266Z,99048.75
2022-12-23T11:07:45.652Z,99046.91
2022-12-23T11:10:49.043Z,99049.44
2022-12-23T11:13:51.111Z,99050.28
2022-12-23T11:16:52.998Z,99047.63
2022-12-23T11:20:19.984Z,99041.16
2022-12-23T11:23:33.554Z,99046.34
2022-12-23T11:26:36.074Z,99039.88
2022-12-23T11:29:43.872Z,99043.22
2022-12-23T11:32:45.830Z,99044.22
2022-12-23T11:35:47.834Z,99042.09
2022-12-23T11:39:09.683Z,99045.88
2022-12-23T11:42:19.754Z,99040.56
2022-12-23T11:45:24.833Z,99043.06
2022-12-23T11:48:29.559Z,99034.09
2022-12-23T11:51:31.449Z,99032.28
2022-12-23T11:54:34.156Z,99031.28
2022-12-23T11:57:42.338Z,99034.78
2022-12-23T12:00:56.035Z,99039.13
2022-12-23T12:04:06.646Z,99030.84
2022-12-23T12:07:13.448Z,99042.34
2022-12-23T12:10:22.404Z,99038.84
2022-12-23T12:13:28.431Z,99044.47
2022-12-23T12:16:56.914Z,99046.53
2022-12-23T12:20:21.821Z,99047.81
2022-12-23T12:23:40.448Z,99053.53
2022-12-23T12:26:47.128Z,99050.88
2022-12-23T12:29:55.846Z,99055.50
2022-12-23T12:33:05.436Z,99050.56
2022-12-23T12:36:16.554Z,99051.72
2022-12-23T12:39:30.589Z,99042.88
2022-12-23T12:42:40.787Z,99042.19
2022-12-23T12:46:00.154Z,99045.53
2022-12-23T12:49:13.981Z,99046.53
2022-12-23T12:52:20.428Z,99042.34
2022-12-23T12:55:32.780Z,99043.88
2022-12-23T12:58:34.601Z,99044.69
2022-12-23T13:01:39.204Z,99043.88
2022-12-23T13:05:05.515Z,99037.00
2022-12-23T13:08:36.190Z,99037.84
2022-12-23T13:11:54.675Z,99037.16
2022-12-23T13:15:04.553Z,99041.50
2022-12-23T13:18:33.775Z,99043.47
2022-12-23T13:21:44.553Z,99047.97
2022-12-23T13:25:20.053Z,99045.44
2022-12-23T13:28:46.247Z,99051.47
2022-12-23T13:31:59.093Z,99045.59
2022-12-23T13:35:22.804Z,99041.09
2022-12-23T13:38:49.224Z,99041.41
2022-12-23T13:41:56.432Z,99046.88
2022-12-23T13:45:03.961Z,99039.88
2022-12-23T13:48:24.121Z,99047.72
2022-12-23T13:51:25.925Z,99040.16
2022-12-23T13:54:27.819Z,99043.81
2022-12-23T13:57:50.999Z,99037.66
2022-12-23T14:01:07.844Z,99042.84
2022-12-23T14:04:52.416Z,99034.16
2022-12-23T14:07:54.899Z,99044.94
2022-12-23T14:11:02.442Z,99031.50
2022-12-23T14:14:07.308Z,99038.66
2022-12-23T14:17:20.701Z,99034.00
2022-12-23T14:20:34.510Z,99030.50
2022-12-23T14:23:44.997Z,99038.66
2022-12-23T14:27:14.358Z,99039.78
2022-12-23T14:30:36.319Z,99037.41
2022-12-23T14:33:38.257Z,99034.75
2022-12-23T14:36:40.233Z,99036.56
2022-12-23T14:39:43.869Z,99032.53
2022-12-23T14:42:45.835Z,99025.69
2022-12-23T14:45:49.814Z,99030.16
2022-12-23T14:49:09.672Z,99043.31
2022-12-23T14:52:38.072Z,99040.50
2022-12-23T14:55:47.310Z,99043.16
2022-12-23T14:58:56.696Z,99039.81
2022-12-23T15:02:16.969Z,99044.31
2022-12-23T15:05:23.396Z,99040.25
2022-12-23T15:08:31.201Z,99044.59
2022-12-23T15:11:34.886Z,99041.09
2022-12-23T15:15:23.404Z,99047.41
2022-12-23T15:18:25.626Z,99050.22
2022-12-23T15:21:30.493Z,99058.88
2022-12-23T15:24:32.673Z,99052.88
2022-12-23T15:27:36.849Z,99059.03
2022-12-23T15:30:52.192Z,99054.53
2022-12-23T15:34:05.245Z,99064.50
2022-12-23T15:37:13.127Z,99059.19
2022-12-23T15:40:25.603Z,99059.19
2022-12-23T15:43:27.937Z,99065.47
2022-12-23T15:46:31.868Z,99057.66
2022-12-23T15:49:34.195Z,99057.66
2022-12-23T15:52:41.555Z,99057.78
2022-12-23T15:55:43.697Z,99060.75
2022-12-23T15:58:45.898Z,99053.75
2022-12-23T16:01:48.021Z,99064.53
2022-12-23T16:04:55.069Z,99061.88
2022-12-23T16:08:13.916Z,99054.59
2022-12-23T16:11:18.838Z,99063.84
2022-12-23T16:14:32.591Z,99057.69
2022-12-23T16:17:36.130Z,99061.19
2022-12-23T16:20:45.591Z,99058.53
2022-12-23T16:23:51.736Z,99055.84
2022-12-23T16:26:56.353Z,99059.50
2022-12-23T16:30:10.889Z,99057.00
2022-12-23T16:33:48.395Z,99064.28
2022-12-23T16:36:50.270Z,99052.09
2022-12-23T16:39:52.055Z,99053.09
2022-12-23T16:42:54.307Z,99057.41
2022-12-23T16:45:57.534Z,99050.44
2022-12-23T16:49:04.592Z,99056.72
2022-12-23T16:52:09.236Z,99048.88
2022-12-23T16:55:19.494Z,99050.72
2022-12-23T16:58:21.414Z,99048.88
2022-12-23T17:01:29.841Z,99045.50
2022-12-23T17:04:31.955Z,99047.31
2022-12-23T17:07:33.870Z,99037.66
2022-12-23T17:10:37.130Z,99035.69
2022-12-23T17:13:39.072Z,99036.69
2022-12-23T17:16:40.966Z,99041.59
2022-12-23T17:19:42.926Z,99044.97
2022-12-23T17:22:47.606Z,99050.97
2022-12-23T17:25:49.424Z,99049.28
2022-12-23T17:28:51.333Z,99041.16
2022-12-23T17:31:53.347Z,99040.63
2022-12-23T17:34:55.264Z,99044.25
2022-12-23T17:37:57.070Z,99034.16
2022-12-23T17:40:59.060Z,99030.13
2022-12-23T17:44:01.338Z,99037.97
2022-12-23T17:47:10.556Z,99036.13
2022-12-23T17:50:12.335Z,99043.13
2022-12-23T17:53:18.589Z,99039.63
2022-12-23T17:56:21.479Z,99036.00
2022-12-23T17:59:23.274Z,99045.09
2022-12-23T18:02:25.270Z,99029.97
2022-12-23T18:05:33.155Z,99034.31
2022-12-23T18:08:34.981Z,99038.94
2022-12-23T18:11:41.863Z,99040.75
2022-12-23T18:14:45.053Z,99036.28
2022-12-23T18:17:47.166Z,99043.28
2022-12-23T18:20:51.349Z,99035.31
2022-12-23T18:23:55.245Z,99030.81
2022-12-23T18:26:57.104Z,99031.81
2022-12-23T18:29:58.883Z,99034.47
2022-12-23T18:33:00.713Z,99028.31
2022-12-23T18:36:02.584Z,99030.66
2022-12-23T18:39:04.397Z,99026.34
2022-12-23T18:42:06.743Z,99017.22
2022-12-23T18:45:20.398Z,99030.53
2022-12-23T18:48:22.288Z,99023.97
2022-12-23T18:51:24.215Z,99028.44
2022-12-23T18:54:25.992Z,99019.63
2022-12-23T18:57:27.843Z,99026.06
2022-12-23T19:00:31.282Z,99028.19
2022-12-23T19:03:33.451Z,99034.63
2022-12-23T19:06:35.387Z,99034.78
2022-12-23T19:09:37.184Z,99048.75
2022-12-23T19:12:39.178Z,99044.56
2022-12-23T19:15:44.779Z,99045.28
2022-12-23T19:18:48.161Z,99042.47
2022-12-23T19:21:50.018Z,99045.41
2022-12-23T19:25:04.544Z,99045.41
2022-12-23T19:28:09.785Z,99047.22
2022-12-23T19:31:14.522Z,99037.44
2022-12-23T19:34:16.446Z,99039.41
2022-12-23T19:37:18.727Z,99042.75
2022-12-23T19:40:20.574Z,99029.75
2022-12-23T19:43:22.390Z,99037.56
2022-12-23T19:46:24.324Z,99038.69
2022-12-23T19:49:26.249Z,99050.03
2022-12-23T19:52:28.151Z,99037.72
2022-12-23T19:55:29.970Z,99041.38
2022-12-23T19:58:34.240Z,99039.53
2022-12-23T20:01:36.246Z,99041.50
2022-12-23T20:04:39.024Z,99041.66
2022-12-23T20:07:40.891Z,99037.16
2022-12-23T20:10:43.979Z,99039.97
2022-12-23T20:13:47.309Z,99043.47
2022-12-23T20:16:49.504Z,99046.97
2022-12-23T20:19:52.440Z,99044.44
2022-12-23T20:22:54.197Z,99048.09
2022-12-23T20:25:56.059Z,99040.25
2022-12-23T20:28:58.471Z,99043.91
2022-12-23T20:32:00.349Z,99037.59
2022-12-23T20:35:02.377Z,99043.75
2022-12-23T20:38:04.282Z,99044.19
2022-12-23T20:41:11.304Z,99042.06
2022-12-23T20:47:35.048Z,99041.25
2022-12-23T20:50:41.827Z,99046.84
2022-12-23T20:53:43.914Z,99043.34
2022-12-23T20:56:45.804Z,99044.19
2022-12-23T20:59:47.628Z,99034.53
2022-12-23T21:02:49.638Z,99042.22
2022-12-23T21:05:56.736Z,99034.25
2022-12-23T21:09:00.148Z,99035.91
2022-12-23T21:12:02.430Z,99028.22
2022-12-23T21:15:05.050Z,99035.38
2022-12-23T21:18:06.974Z,99039.41
2022-12-23T21:21:09.062Z,99032.28
2022-12-23T21:24:11.888Z,99038.44
2022-12-23T21:27:13.747Z,99041.94
2022-12-23T21:30:15.801Z,99040.25
2022-12-23T21:33:17.715Z,99026.28
2022-12-23T21:36:23.008Z,99035.09
2022-12-23T21:39:24.985Z,99023.91
2022-12-23T21:42:26.912Z,99023.06
2022-12-23T21:45:28.797Z,99015.91
2022-12-23T21:48:32.979Z,99023.19
2022-12-23T21:51:39.982Z,99010.06
2022-12-23T21:54:42.761Z,99014.66
2022-12-23T21:57:44.743Z,99022.66
2022-12-23T22:00:46.916Z,99013.97
2022-12-23T22:03:50.510Z,99015.38
2022-12-23T22:06:52.421Z,99013.53
2022-12-23T22:09:54.253Z,99008.38
2022-12-23T22:12:56.074Z,99012.00
2022-12-23T22:15:58.101Z,99014.53
2022-12-23T22:19:01.547Z,99015.38
2022-12-23T22:22:03.399Z,99011.88
2022-12-23T22:25:05.623Z,99004.88
2022-12-23T22:28:07.518Z,99013.53
2022-12-23T22:31:29.970Z,99013.53
2022-12-23T22:34:31.833Z,99015.50
2022-12-23T22:37:33.845Z,99011.88
2022-12-23T22:40:35.723Z,99002.22
2022-12-23T22:43:38.010Z,99001.25
2022-12-23T22:46:40.184Z,98996.91
2022-12-23T22:49:42.867Z,98990.47
2022-12-23T22:52:44.649Z,98992.13
2022-12-23T22:55:55.887Z,98990.31
2022-12-23T22:58:57.723Z,99000.25
2022-12-23T23:01:59.680Z,98990.47
2022-12-23T23:05:01.636Z,98990.31
2022-12-23T23:08:03.604Z,98989.88
2022-12-23T23:11:05.688Z,98990.03
2022-12-23T23:14:07.635Z,98983.03
2022-12-23T23:17:09.437Z,98987.09
2022-12-23T23:20:11.511Z,98981.91
2022-12-23T23:23:13.504Z,98990.03
2022-12-23T23:26:16.044Z,98994.22
2022-12-23T23:29:17.942Z,98995.06
2022-12-23T23:32:19.809Z,98988.06
2022-12-23T23:35:21.727Z,98983.72
2022-12-23T23:38:25.575Z,98989.75
2022-12-23T23:41:28.563Z,98984.84
2022-12-23T23:44:31.617Z,98979.41
2022-12-23T23:47:35.073Z,98972.13
2022-12-23T23:50:37.795Z,98984.56
2022-12-23T23:53:40.312Z,98971.56
2022-12-23T23:56:42.288Z,98975.75
2022-12-23T23:59:44.177Z,98970.72
